sensor_id;sensor_type;location;lat;lon;timestamp;pressure;altitude;pressure_sealevel;temperature;humidity
12203;BME280;6164;42.178;24.622;2022-11-03T00:02:23;99864.75;;;16.92;43.67
12203;BME280;6164;42.178;24.622;2022-11-03T00:04:50;99890.22;;;17.01;43.59
12203;BME280;6164;42.178;24.622;2022-11-03T00:07:18;99886.75;;;17.13;43.06
12203;BME280;6164;42.178;24.622;2022-11-03T00:09:45;99891.88;;;17.22;42.99
12203;BME280;6164;42.178;24.622;2022-11-03T00:12:11;99898.47;;;17.32;42.78
12203;BME280;6164;42.178;24.622;2022-11-03T00:14:38;99919.41;;;17.35;42.82
12203;BME280;6164;42.178;24.622;2022-11-03T00:17:06;99926.00;;;17.33;42.74
12203;BME280;6164;42.178;24.622;2022-11-03T00:19:32;99924.13;;;17.33;42.78
12203;BME280;6164;42.178;24.622;2022-11-03T00:21:59;99931.13;;;17.34;43.08
12203;BME280;6164;42.178;24.622;2022-11-03T00:24:25;99931.53;;;17.31;43.16
12203;BME280;6164;42.178;24.622;2022-11-03T00:26:52;99930.28;;;17.27;43.20
12203;BME280;6164;42.178;24.622;2022-11-03T00:29:18;99926.78;;;17.27;43.29
12203;BME280;6164;42.178;24.622;2022-11-03T00:31:45;99928.66;;;17.26;43.36
12203;BME280;6164;42.178;24.622;2022-11-03T00:34:13;99917.16;;;17.26;43.24
12203;BME280;6164;42.178;24.622;2022-11-03T00:36:40;99923.53;;;17.25;43.74
12203;BME280;6164;42.178;24.622;2022-11-03T00:39:07;99914.88;;;17.16;43.81
12203;BME280;6164;42.178;24.622;2022-11-03T00:41:34;99915.50;;;17.12;43.54
12203;BME280;6164;42.178;24.622;2022-11-03T00:44:01;99905.84;;;17.10;43.73
12203;BME280;6164;42.178;24.622;2022-11-03T00:46:27;99908.28;;;17.05;43.89
12203;BME280;6164;42.178;24.622;2022-11-03T00:48:54;99914.03;;;17.09;43.88
12203;BME280;6164;42.178;24.622;2022-11-03T00:51:23;99905.00;;;17.03;43.79
12203;BME280;6164;42.178;24.622;2022-11-03T00:53:51;99892.69;;;17.02;44.10
12203;BME280;6164;42.178;24.622;2022-11-03T00:56:18;99901.72;;;16.95;44.10
12203;BME280;6164;42.178;24.622;2022-11-03T00:58:45;99895.13;;;16.91;44.40
12203;BME280;6164;42.178;24.622;2022-11-03T01:01:12;99884.66;;;16.83;44.37
12203;BME280;6164;42.178;24.622;2022-11-03T01:03:40;99879.31;;;16.83;44.72
12203;BME280;6164;42.178;24.622;2022-11-03T01:06:28;99887.31;;;16.83;44.32
12203;BME280;6164;42.178;24.622;2022-11-03T01:09:16;99888.31;;;16.82;44.27
12203;BME280;6164;42.178;24.622;2022-11-03T01:11:42;99874.81;;;16.83;44.82
12203;BME280;6164;42.178;24.622;2022-11-03T01:14:15;99873.75;;;16.78;44.54
12203;BME280;6164;42.178;24.622;2022-11-03T01:16:41;99879.28;;;16.76;44.61
12203;BME280;6164;42.178;24.622;2022-11-03T01:19:08;99876.00;;;16.74;44.72
12203;BME280;6164;42.178;24.622;2022-11-03T01:21:36;99867.78;;;16.69;44.99
12203;BME280;6164;42.178;24.622;2022-11-03T01:24:03;99868.81;;;16.68;44.87
12203;BME280;6164;42.178;24.622;2022-11-03T01:26:30;99863.88;;;16.65;45.31
12203;BME280;6164;42.178;24.622;2022-11-03T01:28:57;99860.00;;;16.68;45.05
12203;BME280;6164;42.178;24.622;2022-11-03T01:31:24;99853.03;;;16.67;45.05
12203;BME280;6164;42.178;24.622;2022-11-03T01:33:52;99863.03;;;16.58;45.09
12203;BME280;6164;42.178;24.622;2022-11-03T01:36:19;99863.47;;;16.62;45.17
12203;BME280;6164;42.178;24.622;2022-11-03T01:38:47;99855.06;;;16.65;45.20
12203;BME280;6164;42.178;24.622;2022-11-03T01:41:14;99858.16;;;16.68;45.01
12203;BME280;6164;42.178;24.622;2022-11-03T01:43:41;99859.78;;;16.69;45.12
12203;BME280;6164;42.178;24.622;2022-11-03T01:46:11;99864.72;;;16.72;44.91
12203;BME280;6164;42.178;24.622;2022-11-03T01:48:42;99876.22;;;16.79;44.64
12203;BME280;6164;42.178;24.622;2022-11-03T01:51:11;99872.53;;;16.87;44.77
12203;BME280;6164;42.178;24.622;2022-11-03T01:53:41;99885.28;;;16.91;44.19
12203;BME280;6164;42.178;24.622;2022-11-03T01:56:10;99889.59;;;16.99;44.12
12203;BME280;6164;42.178;24.622;2022-11-03T01:58:38;99894.72;;;17.00;44.07
12203;BME280;6164;42.178;24.622;2022-11-03T02:01:11;99901.31;;;17.04;43.91
12203;BME280;6164;42.178;24.622;2022-11-03T02:03:38;99906.25;;;17.07;43.73
12203;BME280;6164;42.178;24.622;2022-11-03T02:06:06;99906.25;;;17.14;43.79
12203;BME280;6164;42.178;24.622;2022-11-03T02:08:35;99914.06;;;17.16;43.51
12203;BME280;6164;42.178;24.622;2022-11-03T02:11:02;99904.81;;;17.12;43.81
12203;BME280;6164;42.178;24.622;2022-11-03T02:13:50;99913.44;;;17.20;43.42
12203;BME280;6164;42.178;24.622;2022-11-03T02:16:17;99923.31;;;17.26;43.12
12203;BME280;6164;42.178;24.622;2022-11-03T02:18:44;99926.41;;;17.30;43.20
12203;BME280;6164;42.178;24.622;2022-11-03T02:21:16;99936.06;;;17.37;43.05
12203;BME280;6164;42.178;24.622;2022-11-03T02:23:45;99945.34;;;17.48;42.45
12203;BME280;6164;42.178;24.622;2022-11-03T02:26:15;99950.06;;;17.52;42.31
12203;BME280;6164;42.178;24.622;2022-11-03T02:28:42;99964.84;;;17.55;42.34
12203;BME280;6164;42.178;24.622;2022-11-03T02:31:10;99968.34;;;17.62;42.29
12203;BME280;6164;42.178;24.622;2022-11-03T02:33:46;99980.47;;;17.71;41.73
12203;BME280;6164;42.178;24.622;2022-11-03T02:36:16;99974.72;;;17.74;42.12
12203;BME280;6164;42.178;24.622;2022-11-03T02:38:45;99993.63;;;17.79;41.74
12203;BME280;6164;42.178;24.622;2022-11-03T02:41:12;99999.19;;;17.77;41.70
12203;BME280;6164;42.178;24.622;2022-11-03T02:43:41;100007.78;;;17.73;41.76
12203;BME280;6164;42.178;24.622;2022-11-03T02:46:09;100014.56;;;17.75;41.75
12203;BME280;6164;42.178;24.622;2022-11-03T02:48:37;100018.09;;;17.76;41.58
12203;BME280;6164;42.178;24.622;2022-11-03T02:51:06;100020.94;;;17.74;41.66
12203;BME280;6164;42.178;24.622;2022-11-03T02:53:34;100020.75;;;17.76;41.56
12203;BME280;6164;42.178;24.622;2022-11-03T02:56:03;100025.06;;;17.77;41.53
12203;BME280;6164;42.178;24.622;2022-11-03T02:58:33;100025.88;;;17.77;41.73
12203;BME280;6164;42.178;24.622;2022-11-03T03:01:03;100020.53;;;17.77;41.88
12203;BME280;6164;42.178;24.622;2022-11-03T03:03:36;100014.16;;;17.85;41.74
12203;BME280;6164;42.178;24.622;2022-11-03T03:06:04;100026.09;;;17.89;41.68
12203;BME280;6164;42.178;24.622;2022-11-03T03:08:33;100026.31;;;17.87;41.78
12203;BME280;6164;42.178;24.622;2022-11-03T03:11:04;100033.69;;;17.92;41.54
12203;BME280;6164;42.178;24.622;2022-11-03T03:13:31;100019.31;;;17.93;41.63
12203;BME280;6164;42.178;24.622;2022-11-03T03:16:03;100034.50;;;17.92;41.38
12203;BME280;6164;42.178;24.622;2022-11-03T03:18:36;100047.06;;;17.92;41.44
12203;BME280;6164;42.178;24.622;2022-11-03T03:21:10;100047.84;;;17.86;41.33
12203;BME280;6164;42.178;24.622;2022-11-03T03:23:39;100042.72;;;17.84;41.74
12203;BME280;6164;42.178;24.622;2022-11-03T03:26:12;100036.97;;;17.81;41.70
12203;BME280;6164;42.178;24.622;2022-11-03T03:28:43;100022.81;;;17.80;42.31
12203;BME280;6164;42.178;24.622;2022-11-03T03:31:14;100025.47;;;17.80;42.34
12203;BME280;6164;42.178;24.622;2022-11-03T03:33:43;100014.59;;;17.82;42.45
12203;BME280;6164;42.178;24.622;2022-11-03T03:36:12;100014.38;;;17.83;42.34
12203;BME280;6164;42.178;24.622;2022-11-03T03:38:40;100016.22;;;17.83;42.42
12203;BME280;6164;42.178;24.622;2022-11-03T03:41:12;100011.91;;;17.82;42.26
12203;BME280;6164;42.178;24.622;2022-11-03T03:43:45;100027.31;;;17.80;41.77
12203;BME280;6164;42.178;24.622;2022-11-03T03:46:13;100032.44;;;17.75;41.66
12203;BME280;6164;42.178;24.622;2022-11-03T03:48:41;100035.31;;;17.73;41.68
12203;BME280;6164;42.178;24.622;2022-11-03T03:51:08;100036.72;;;17.69;41.52
12203;BME280;6164;42.178;24.622;2022-11-03T03:53:36;100041.47;;;17.67;41.55
12203;BME280;6164;42.178;24.622;2022-11-03T03:56:03;100039.81;;;17.60;41.69
12203;BME280;6164;42.178;24.622;2022-11-03T03:58:30;100032.19;;;17.57;41.96
12203;BME280;6164;42.178;24.622;2022-11-03T04:00:56;100029.94;;;17.54;42.03
12203;BME280;6164;42.178;24.622;2022-11-03T04:03:25;100036.91;;;17.55;41.82
12203;BME280;6164;42.178;24.622;2022-11-03T04:05:53;100027.88;;;17.49;42.04
12203;BME280;6164;42.178;24.622;2022-11-03T04:08:19;100029.09;;;17.47;41.96
12203;BME280;6164;42.178;24.622;2022-11-03T04:10:46;100024.13;;;17.44;42.32
12203;BME280;6164;42.178;24.622;2022-11-03T04:13:26;100025.56;;;17.40;42.19
12203;BME280;6164;42.178;24.622;2022-11-03T04:16:10;100030.28;;;17.38;42.09
12203;BME280;6164;42.178;24.622;2022-11-03T04:18:55;100026.78;;;17.37;42.41
12203;BME280;6164;42.178;24.622;2022-11-03T04:21:39;100013.03;;;17.34;42.47
12203;BME280;6164;42.178;24.622;2022-11-03T04:24:23;100011.81;;;17.30;42.32
12203;BME280;6164;42.178;24.622;2022-11-03T04:26:50;100011.59;;;17.31;42.33
12203;BME280;6164;42.178;24.622;2022-11-03T04:29:17;100015.06;;;17.32;42.16
12203;BME280;6164;42.178;24.622;2022-11-03T04:31:43;100020.81;;;17.29;42.55
12203;BME280;6164;42.178;24.622;2022-11-03T04:34:11;100009.31;;;17.28;42.45
12203;BME280;6164;42.178;24.622;2022-11-03T04:36:38;100021.63;;;17.29;42.20
12203;BME280;6164;42.178;24.622;2022-11-03T04:39:06;100018.78;;;17.31;42.50
12203;BME280;6164;42.178;24.622;2022-11-03T04:41:39;100015.91;;;17.32;42.41
12203;BME280;6164;42.178;24.622;2022-11-03T04:44:06;100016.94;;;17.31;42.58
12203;BME280;6164;42.178;24.622;2022-11-03T04:46:36;100026.16;;;17.29;42.44
12203;BME280;6164;42.178;24.622;2022-11-03T04:49:03;100011.81;;;17.30;42.55
12203;BME280;6164;42.178;24.622;2022-11-03T04:51:32;100010.34;;;17.27;42.54
12203;BME280;6164;42.178;24.622;2022-11-03T04:54:00;100019.19;;;17.28;42.62
12203;BME280;6164;42.178;24.622;2022-11-03T04:56:28;100016.28;;;17.23;42.74
12203;BME280;6164;42.178;24.622;2022-11-03T04:58:54;100015.44;;;17.22;42.81
12203;BME280;6164;42.178;24.622;2022-11-03T05:01:23;100017.69;;;17.19;43.13
12203;BME280;6164;42.178;24.622;2022-11-03T05:03:50;100011.72;;;17.17;42.89
12203;BME280;6164;42.178;24.622;2022-11-03T05:06:18;100000.88;;;17.12;43.06
12203;BME280;6164;42.178;24.622;2022-11-03T05:08:47;100001.03;;;17.10;42.87
12203;BME280;6164;42.178;24.622;2022-11-03T05:11:16;100011.53;;;17.12;42.87
12203;BME280;6164;42.178;24.622;2022-11-03T05:13:44;100016.25;;;17.09;43.08
12203;BME280;6164;42.178;24.622;2022-11-03T05:16:11;100009.88;;;17.10;43.14
12203;BME280;6164;42.178;24.622;2022-11-03T05:18:38;100015.63;;;17.07;43.14
12203;BME280;6164;42.178;24.622;2022-11-03T05:21:07;100008.44;;;17.08;43.21
12203;BME280;6164;42.178;24.622;2022-11-03T05:23:36;100009.66;;;17.05;43.28
12203;BME280;6164;42.178;24.622;2022-11-03T05:26:06;100012.53;;;17.10;43.18
12203;BME280;6164;42.178;24.622;2022-11-03T05:28:36;100016.25;;;17.09;43.11
12203;BME280;6164;42.178;24.622;2022-11-03T05:31:08;100011.72;;;17.10;43.37
12203;BME280;6164;42.178;24.622;2022-11-03T05:33:40;100013.97;;;17.06;43.49
12203;BME280;6164;42.178;24.622;2022-11-03T05:36:11;100012.53;;;17.04;43.77
12203;BME280;6164;42.178;24.622;2022-11-03T05:38:38;100017.44;;;17.00;43.92
12203;BME280;6164;42.178;24.622;2022-11-03T05:41:11;100017.66;;;17.05;43.58
12203;BME280;6164;42.178;24.622;2022-11-03T05:43:39;100015.81;;;17.06;43.92
12203;BME280;6164;42.178;24.622;2022-11-03T05:46:07;100019.72;;;17.10;43.89
12203;BME280;6164;42.178;24.622;2022-11-03T05:48:36;100012.34;;;17.12;43.68
12203;BME280;6164;42.178;24.622;2022-11-03T05:51:09;100023.63;;;17.14;43.70
12203;BME280;6164;42.178;24.622;2022-11-03T05:53:38;100024.50;;;17.21;43.58
12203;BME280;6164;42.178;24.622;2022-11-03T05:56:10;100022.25;;;17.25;43.78
12203;BME280;6164;42.178;24.622;2022-11-03T05:58:39;100033.75;;;17.32;43.63
12203;BME280;6164;42.178;24.622;2022-11-03T06:01:09;100043.63;;;17.38;43.29
12203;BME280;6164;42.178;24.622;2022-11-03T06:03:37;100048.78;;;17.39;43.57
12203;BME280;6164;42.178;24.622;2022-11-03T06:06:08;100052.88;;;17.42;43.28
12203;BME280;6164;42.178;24.622;2022-11-03T06:08:36;100063.19;;;17.51;43.23
12203;BME280;6164;42.178;24.622;2022-11-03T06:11:03;100068.34;;;17.53;43.08
12203;BME280;6164;42.178;24.622;2022-11-03T06:13:31;100075.56;;;17.59;42.75
12203;BME280;6164;42.178;24.622;2022-11-03T06:16:00;100089.34;;;17.69;42.58
12203;BME280;6164;42.178;24.622;2022-11-03T06:18:29;100085.63;;;17.70;43.02
12203;BME280;6164;42.178;24.622;2022-11-03T06:20:57;100098.00;;;17.77;42.49
12203;BME280;6164;42.178;24.622;2022-11-03T06:23:24;100108.88;;;17.76;42.42
12203;BME280;6164;42.178;24.622;2022-11-03T06:25:51;100109.91;;;17.88;42.37
12203;BME280;6164;42.178;24.622;2022-11-03T06:28:19;100113.44;;;17.95;42.48
12203;BME280;6164;42.178;24.622;2022-11-03T06:30:47;100112.19;;;18.04;43.04
12203;BME280;6164;42.178;24.622;2022-11-03T06:33:15;100115.28;;;18.07;42.78
12203;BME280;6164;42.178;24.622;2022-11-03T06:35:45;100123.09;;;18.15;42.53
12203;BME280;6164;42.178;24.622;2022-11-03T06:38:14;100124.97;;;18.28;42.13
12203;BME280;6164;42.178;24.622;2022-11-03T06:40:41;100142.66;;;18.35;42.07
12203;BME280;6164;42.178;24.622;2022-11-03T06:43:15;100147.63;;;18.45;41.84
12203;BME280;6164;42.178;24.622;2022-11-03T06:45:46;100158.72;;;18.55;41.67
12203;BME280;6164;42.178;24.622;2022-11-03T06:48:15;100169.63;;;18.67;41.76
12203;BME280;6164;42.178;24.622;2022-11-03T06:50:48;100181.56;;;18.77;41.29
12203;BME280;6164;42.178;24.622;2022-11-03T06:53:18;100180.16;;;18.81;41.31
12203;BME280;6164;42.178;24.622;2022-11-03T06:55:45;100182.19;;;18.79;41.57
12203;BME280;6164;42.178;24.622;2022-11-03T06:58:14;100194.72;;;18.85;41.38
12203;BME280;6164;42.178;24.622;2022-11-03T07:00:42;100186.91;;;18.90;41.48
12203;BME280;6164;42.178;24.622;2022-11-03T07:03:09;100187.09;;;19.02;41.58
12203;BME280;6164;42.178;24.622;2022-11-03T07:05:40;100195.97;;;19.02;41.20
12203;BME280;6164;42.178;24.622;2022-11-03T07:08:12;100178.03;;;19.03;42.10
12203;BME280;6164;42.178;24.622;2022-11-03T07:10:39;100159.13;;;19.04;42.48
12203;BME280;6164;42.178;24.622;2022-11-03T07:13:09;100159.91;;;19.11;42.57
12203;BME280;6164;42.178;24.622;2022-11-03T07:15:38;100180.09;;;19.14;42.22
12203;BME280;6164;42.178;24.622;2022-11-03T07:18:05;100165.44;;;19.23;42.48
12203;BME280;6164;42.178;24.622;2022-11-03T07:20:38;100174.94;;;19.32;42.72
12203;BME280;6164;42.178;24.622;2022-11-03T07:23:07;100156.38;;;19.37;42.77
12203;BME280;6164;42.178;24.622;2022-11-03T07:25:38;100163.13;;;19.46;42.86
12203;BME280;6164;42.178;24.622;2022-11-03T07:28:04;100153.03;;;19.48;43.21
12203;BME280;6164;42.178;24.622;2022-11-03T07:30:32;100148.66;;;19.60;43.34
12203;BME280;6164;42.178;24.622;2022-11-03T07:33:01;100147.84;;;19.59;43.63
12203;BME280;6164;42.178;24.622;2022-11-03T07:35:32;100136.22;;;19.72;43.89
12203;BME280;6164;42.178;24.622;2022-11-03T07:38:00;100143.00;;;19.81;43.00
12203;BME280;6164;42.178;24.622;2022-11-03T07:40:30;100135.75;;;19.88;43.49
12203;BME280;6164;42.178;24.622;2022-11-03T07:42:57;100137.34;;;19.96;43.41
12203;BME280;6164;42.178;24.622;2022-11-03T07:45:32;100136.84;;;20.05;43.82
12203;BME280;6164;42.178;24.622;2022-11-03T07:48:01;100125.28;;;20.11;44.12
12203;BME280;6164;42.178;24.622;2022-11-03T07:50:31;100145.84;;;20.24;43.21
12203;BME280;6164;42.178;24.622;2022-11-03T07:52:57;100151.53;;;20.34;42.88
12203;BME280;6164;42.178;24.622;2022-11-03T07:55:24;100152.31;;;20.41;42.62
12203;BME280;6164;42.178;24.622;2022-11-03T07:57:52;100140.28;;;20.50;43.12
12203;BME280;6164;42.178;24.622;2022-11-03T08:00:18;100144.91;;;20.61;43.32
12203;BME280;6164;42.178;24.622;2022-11-03T08:02:47;100142.34;;;20.72;43.10
12203;BME280;6164;42.178;24.622;2022-11-03T08:05:15;100158.59;;;20.77;42.02
12203;BME280;6164;42.178;24.622;2022-11-03T08:07:42;100157.75;;;20.83;42.53
12203;BME280;6164;42.178;24.622;2022-11-03T08:10:08;100163.44;;;20.93;42.58
12203;BME280;6164;42.178;24.622;2022-11-03T08:12:35;100186.72;;;21.00;41.48
12203;BME280;6164;42.178;24.622;2022-11-03T08:15:03;100188.44;;;21.12;41.57
12203;BME280;6164;42.178;24.622;2022-11-03T08:17:31;100205.94;;;21.21;40.96
12203;BME280;6164;42.178;24.622;2022-11-03T08:19:57;100209.00;;;21.25;40.82
12203;BME280;6164;42.178;24.622;2022-11-03T08:22:24;100222.56;;;21.30;40.22
12203;BME280;6164;42.178;24.622;2022-11-03T08:24:50;100197.72;;;21.34;41.18
12203;BME280;6164;42.178;24.622;2022-11-03T08:27:17;100226.59;;;21.39;39.59
12203;BME280;6164;42.178;24.622;2022-11-03T08:29:44;100257.44;;;21.36;39.03
12203;BME280;6164;42.178;24.622;2022-11-03T08:32:12;100281.59;;;21.36;38.42
12203;BME280;6164;42.178;24.622;2022-11-03T08:34:38;100279.34;;;21.33;38.53
12203;BME280;6164;42.178;24.622;2022-11-03T08:37:04;100286.06;;;21.42;38.60
12203;BME280;6164;42.178;24.622;2022-11-03T08:39:31;100316.22;;;21.44;37.85
12203;BME280;6164;42.178;24.622;2022-11-03T08:42:00;100299.22;;;21.50;38.52
12203;BME280;6164;42.178;24.622;2022-11-03T08:44:26;100307.00;;;21.58;38.24
12203;BME280;6164;42.178;24.622;2022-11-03T08:46:53;100312.75;;;21.62;37.83
12203;BME280;6164;42.178;24.622;2022-11-03T08:49:20;100321.19;;;21.65;38.05
12203;BME280;6164;42.178;24.622;2022-11-03T08:51:47;100322.25;;;21.64;37.84
12203;BME280;6164;42.178;24.622;2022-11-03T08:54:13;100328.19;;;21.66;38.12
12203;BME280;6164;42.178;24.622;2022-11-03T08:56:40;100329.56;;;21.75;38.27
12203;BME280;6164;42.178;24.622;2022-11-03T08:59:07;100334.91;;;21.82;37.44
12203;BME280;6164;42.178;24.622;2022-11-03T09:01:34;100343.78;;;21.82;37.18
12203;BME280;6164;42.178;24.622;2022-11-03T09:04:03;100342.13;;;21.81;37.74
12203;BME280;6164;42.178;24.622;2022-11-03T09:06:31;100329.97;;;21.97;37.46
12203;BME280;6164;42.178;24.622;2022-11-03T09:08:58;100331.22;;;21.94;37.69
12203;BME280;6164;42.178;24.622;2022-11-03T09:11:24;100343.56;;;22.02;37.45
12203;BME280;6164;42.178;24.622;2022-11-03T09:13:51;100346.25;;;22.02;37.04
12203;BME280;6164;42.178;24.622;2022-11-03T09:16:17;100348.66;;;22.10;37.23
12203;BME280;6164;42.178;24.622;2022-11-03T09:18:44;100352.31;;;22.15;37.17
12203;BME280;6164;42.178;24.622;2022-11-03T09:21:10;100348.72;;;22.22;36.85
12203;BME280;6164;42.178;24.622;2022-11-03T09:23:40;100342.44;;;22.28;36.30
12203;BME280;6164;42.178;24.622;2022-11-03T09:26:06;100361.19;;;22.34;36.36
12203;BME280;6164;42.178;24.622;2022-11-03T09:28:33;100369.47;;;22.33;36.10
12203;BME280;6164;42.178;24.622;2022-11-03T09:30:59;100370.81;;;22.42;35.77
12203;BME280;6164;42.178;24.622;2022-11-03T09:33:26;100378.81;;;22.48;36.10
12203;BME280;6164;42.178;24.622;2022-11-03T09:35:52;100370.91;;;22.53;35.77
12203;BME280;6164;42.178;24.622;2022-11-03T09:38:19;100356.31;;;22.61;36.42
12203;BME280;6164;42.178;24.622;2022-11-03T09:40:46;100368.28;;;22.65;35.95
12203;BME280;6164;42.178;24.622;2022-11-03T09:43:13;100363.84;;;22.70;36.04
12203;BME280;6164;42.178;24.622;2022-11-03T09:45:39;100368.94;;;22.78;35.62
12203;BME280;6164;42.178;24.622;2022-11-03T09:48:07;100382.28;;;22.85;35.32
12203;BME280;6164;42.178;24.622;2022-11-03T09:50:34;100378.69;;;22.91;35.84
12203;BME280;6164;42.178;24.622;2022-11-03T09:53:01;100384.19;;;22.96;34.99
12203;BME280;6164;42.178;24.622;2022-11-03T09:55:28;100388.53;;;22.97;35.38
12203;BME280;6164;42.178;24.622;2022-11-03T09:57:58;100388.84;;;22.89;34.96
12203;BME280;6164;42.178;24.622;2022-11-03T10:00:25;100385.28;;;22.77;35.80
12203;BME280;6164;42.178;24.622;2022-11-03T10:02:52;100367.63;;;22.81;36.15
12203;BME280;6164;42.178;24.622;2022-11-03T10:05:19;100380.16;;;22.87;35.50
12203;BME280;6164;42.178;24.622;2022-11-03T10:07:48;100367.91;;;22.91;35.49
12203;BME280;6164;42.178;24.622;2022-11-03T10:10:16;100370.88;;;23.01;35.00
12203;BME280;6164;42.178;24.622;2022-11-03T10:12:43;100380.06;;;22.93;35.01
12203;BME280;6164;42.178;24.622;2022-11-03T10:15:14;100372.81;;;22.94;35.94
12203;BME280;6164;42.178;24.622;2022-11-03T10:17:41;100348.25;;;23.02;35.68
12203;BME280;6164;42.178;24.622;2022-11-03T10:20:09;100348.97;;;23.09;35.95
12203;BME280;6164;42.178;24.622;2022-11-03T10:22:36;100353.91;;;23.12;35.53
12203;BME280;6164;42.178;24.622;2022-11-03T10:27:47;100336.13;;;23.22;36.01
12203;BME280;6164;42.178;24.622;2022-11-03T10:30:15;100332.06;;;23.31;35.92
12203;BME280;6164;42.178;24.622;2022-11-03T10:32:42;100327.03;;;23.35;35.58
12203;BME280;6164;42.178;24.622;2022-11-03T10:37:50;100337.47;;;23.43;35.33
12203;BME280;6164;42.178;24.622;2022-11-03T10:40:34;100323.06;;;23.49;35.57
12203;BME280;6164;42.178;24.622;2022-11-03T10:43:01;100339.91;;;23.56;34.86
12203;BME280;6164;42.178;24.622;2022-11-03T10:45:29;100349.31;;;23.54;34.56
12203;BME280;6164;42.178;24.622;2022-11-03T10:47:59;100323.19;;;23.66;35.31
12203;BME280;6164;42.178;24.622;2022-11-03T10:50:26;100345.44;;;23.73;34.45
12203;BME280;6164;42.178;24.622;2022-11-03T10:52:53;100338.66;;;23.70;34.75
12203;BME280;6164;42.178;24.622;2022-11-03T10:55:20;100347.66;;;23.76;34.64
12203;BME280;6164;42.178;24.622;2022-11-03T10:57:47;100340.63;;;23.86;34.10
12203;BME280;6164;42.178;24.622;2022-11-03T11:00:15;100345.88;;;23.93;34.11
12203;BME280;6164;42.178;24.622;2022-11-03T11:02:44;100357.50;;;23.93;33.75
12203;BME280;6164;42.178;24.622;2022-11-03T11:05:12;100364.78;;;23.81;33.80
12203;BME280;6164;42.178;24.622;2022-11-03T11:07:40;100341.91;;;23.95;34.49
12203;BME280;6164;42.178;24.622;2022-11-03T11:10:10;100330.53;;;23.93;34.40
12203;BME280;6164;42.178;24.622;2022-11-03T11:12:37;100329.22;;;23.96;33.84
12203;BME280;6164;42.178;24.622;2022-11-03T11:15:33;100335.56;;;23.90;34.37
12203;BME280;6164;42.178;24.622;2022-11-03T11:17:56;100317.63;;;23.95;34.98
12203;BME280;6164;42.178;24.622;2022-11-03T11:20:30;100316.34;;;23.98;34.30
12203;BME280;6164;42.178;24.622;2022-11-03T11:28:19;100307.31;;;24.04;33.67
12203;BME280;6164;42.178;24.622;2022-11-03T11:33:40;100298.75;;;23.95;34.49
12203;BME280;6164;42.178;24.622;2022-11-03T11:38:54;100295.22;;;24.06;33.89
12203;BME280;6164;42.178;24.622;2022-11-03T11:41:20;100301.22;;;24.08;34.12
12203;BME280;6164;42.178;24.622;2022-11-03T11:46:44;100271.69;;;24.30;34.54
12203;BME280;6164;42.178;24.622;2022-11-03T11:49:18;100282.09;;;24.38;34.03
12203;BME280;6164;42.178;24.622;2022-11-03T11:51:45;100275.81;;;24.49;34.02
12203;BME280;6164;42.178;24.622;2022-11-03T11:54:13;100279.03;;;24.46;34.04
12203;BME280;6164;42.178;24.622;2022-11-03T11:56:42;100287.13;;;24.46;33.63
12203;BME280;6164;42.178;24.622;2022-11-03T11:59:13;100295.38;;;24.39;33.24
12203;BME280;6164;42.178;24.622;2022-11-03T12:01:41;100280.09;;;24.33;34.28
12203;BME280;6164;42.178;24.622;2022-11-03T12:04:13;100283.28;;;24.30;33.55
12203;BME280;6164;42.178;24.622;2022-11-03T12:06:43;100284.59;;;24.28;34.12
12203;BME280;6164;42.178;24.622;2022-11-03T12:09:15;100263.38;;;24.31;34.14
12203;BME280;6164;42.178;24.622;2022-11-03T12:11:43;100273.66;;;24.34;33.43
12203;BME280;6164;42.178;24.622;2022-11-03T12:14:20;100285.41;;;24.28;33.13
12203;BME280;6164;42.178;24.622;2022-11-03T12:16:46;100279.25;;;24.16;33.65
12203;BME280;6164;42.178;24.622;2022-11-03T12:22:37;100257.28;;;24.24;34.36
12203;BME280;6164;42.178;24.622;2022-11-03T12:25:01;100263.13;;;24.33;33.69
12203;BME280;6164;42.178;24.622;2022-11-03T12:27:42;100251.59;;;24.37;34.22
12203;BME280;6164;42.178;24.622;2022-11-03T12:30:13;100248.25;;;24.47;33.86
12203;BME280;6164;42.178;24.622;2022-11-03T12:32:40;100265.38;;;24.52;33.25
12203;BME280;6164;42.178;24.622;2022-11-03T12:35:07;100250.28;;;24.68;34.18
12203;BME280;6164;42.178;24.622;2022-11-03T12:37:35;100245.63;;;24.80;33.71
12203;BME280;6164;42.178;24.622;2022-11-03T12:40:02;100266.00;;;24.88;32.93
12203;BME280;6164;42.178;24.622;2022-11-03T12:42:29;100262.84;;;24.91;33.10
12203;BME280;6164;42.178;24.622;2022-11-03T12:44:55;100266.41;;;24.96;32.75
12203;BME280;6164;42.178;24.622;2022-11-03T12:47:22;100275.84;;;24.94;32.90
12203;BME280;6164;42.178;24.622;2022-11-03T12:49:48;100283.38;;;24.92;32.54
12203;BME280;6164;42.178;24.622;2022-11-03T12:52:15;100275.00;;;24.93;32.97
12203;BME280;6164;42.178;24.622;2022-11-03T12:54:42;100273.72;;;24.96;32.87
12203;BME280;6164;42.178;24.622;2022-11-03T12:57:09;100275.44;;;25.02;33.00
12203;BME280;6164;42.178;24.622;2022-11-03T12:59:35;100266.50;;;25.01;32.71
12203;BME280;6164;42.178;24.622;2022-11-03T13:02:02;100271.66;;;24.86;32.78
12203;BME280;6164;42.178;24.622;2022-11-03T13:04:28;100252.03;;;24.74;33.58
12203;BME280;6164;42.178;24.622;2022-11-03T13:06:55;100240.88;;;24.71;33.52
12203;BME280;6164;42.178;24.622;2022-11-03T13:09:21;100249.06;;;24.76;33.20
12203;BME280;6164;42.178;24.622;2022-11-03T13:11:49;100240.44;;;24.62;33.90
12203;BME280;6164;42.178;24.622;2022-11-03T13:14:37;100218.41;;;24.53;34.61
12203;BME280;6164;42.178;24.622;2022-11-03T13:17:03;100223.72;;;24.48;33.90
12203;BME280;6164;42.178;24.622;2022-11-03T13:19:29;100217.34;;;24.38;33.75
12203;BME280;6164;42.178;24.622;2022-11-03T13:21:56;100219.19;;;24.37;33.89
12203;BME280;6164;42.178;24.622;2022-11-03T13:24:22;100224.69;;;24.42;34.02